createdAt,value
2022-09-02T00:02:24.884Z,62.00
2022-09-02T00:05:12.293Z,61.54
2022-09-02T00:07:52.862Z,60.99
2022-09-02T00:10:53.952Z,60.21
2022-09-02T00:13:44.677Z,59.09
2022-09-02T00:16:17.766Z,59.83
2022-09-02T00:18:57.241Z,61.19
2022-09-02T00:21:39.138Z,63.79
2022-09-02T00:24:25.807Z,65.01
2022-09-02T00:27:08.047Z,64.44
2022-09-02T00:29:45.662Z,63.41
2022-09-02T00:32:23.247Z,62.38
2022-09-02T00:34:54.747Z,61.98
2022-09-02T00:37:54.577Z,61.89
2022-09-02T00:40:33.463Z,61.50
2022-09-02T00:43:49.452Z,60.55
2022-09-02T00:46:30.448Z,60.48
2022-09-02T00:49:35.023Z,59.02
2022-09-02T00:53:19.462Z,59.57
2022-09-02T00:56:03.121Z,60.44
2022-09-02T00:58:38.678Z,63.57
2022-09-02T01:01:30.071Z,65.39
2022-09-02T01:04:08.261Z,64.85
2022-09-02T01:07:24.496Z,64.29
2022-09-02T01:10:16.328Z,63.75
2022-09-02T01:13:09.490Z,62.95
2022-09-02T01:16:27.570Z,62.43
2022-09-02T01:19:43.726Z,62.15
2022-09-02T01:22:34.128Z,61.69
2022-09-02T01:25:41.485Z,61.27
2022-09-02T01:28:40.983Z,61.08
2022-09-02T01:31:18.145Z,60.95
2022-09-02T01:34:06.897Z,60.91
2022-09-02T01:36:42.724Z,60.89
2022-09-02T01:39:32.985Z,61.26
2022-09-02T01:42:30.468Z,61.31
2022-09-02T01:45:05.402Z,60.70
2022-09-02T01:47:46.477Z,60.31
2022-09-02T01:50:27.050Z,60.13
2022-09-02T01:53:39.476Z,60.67
2022-09-02T01:56:15.134Z,60.66
2022-09-02T01:59:08.373Z,61.18
2022-09-02T02:01:48.308Z,61.77
2022-09-02T02:04:20.780Z,62.08
2022-09-02T02:07:19.649Z,62.32
2022-09-02T02:10:10.580Z,62.16
2022-09-02T02:13:02.927Z,61.93
2022-09-02T02:16:08.539Z,61.17
2022-09-02T02:18:43.487Z,60.97
2022-09-02T02:21:15.370Z,60.89
2022-09-02T02:24:01.886Z,60.90
2022-09-02T02:26:33.749Z,61.16
2022-09-02T02:29:09.758Z,61.39
2022-09-02T02:31:39.896Z,61.77
2022-09-02T02:34:43.079Z,62.07
2022-09-02T02:37:33.177Z,62.37
2022-09-02T02:40:14.353Z,62.03
2022-09-02T02:42:55.041Z,61.94
2022-09-02T02:45:37.939Z,61.91
2022-09-02T02:48:15.044Z,61.82
2022-09-02T02:51:03.153Z,61.91
2022-09-02T02:53:40.151Z,61.79
2022-09-02T02:57:01.347Z,61.63
2022-09-02T03:00:02.840Z,61.38
2022-09-02T03:02:42.406Z,61.64
2022-09-02T03:05:53.995Z,60.73
2022-09-02T03:09:09.347Z,60.23
2022-09-02T03:11:54.375Z,58.78
2022-09-02T03:14:51.599Z,59.20
2022-09-02T03:17:42.675Z,60.31
2022-09-02T03:20:17.397Z,63.02
2022-09-02T03:22:59.378Z,64.17
2022-09-02T03:25:56.327Z,63.84
2022-09-02T03:29:13.554Z,63.29
2022-09-02T03:31:46.349Z,62.88
2022-09-02T03:34:21.807Z,62.52
2022-09-02T03:37:13.900Z,62.21
2022-09-02T03:39:43.241Z,61.79
2022-09-02T03:42:21.348Z,61.38
2022-09-02T03:45:01.996Z,61.05
2022-09-02T03:47:51.509Z,60.96
2022-09-02T03:50:25.832Z,61.06
2022-09-02T03:53:01.533Z,61.01
2022-09-02T03:55:56.042Z,60.97
2022-09-02T03:58:37.842Z,60.87
2022-09-02T04:01:37.837Z,60.60
2022-09-02T04:04:47.698Z,60.44
2022-09-02T04:07:21.314Z,60.54
2022-09-02T04:10:02.619Z,60.72
2022-09-02T04:12:36.836Z,60.71
2022-09-02T04:16:10.542Z,60.63
2022-09-02T04:18:43.459Z,60.65
2022-09-02T04:21:41.650Z,60.96
2022-09-02T04:24:16.749Z,61.11
2022-09-02T04:27:05.579Z,60.50
2022-09-02T04:29:52.357Z,60.21
2022-09-02T04:32:41.000Z,60.37
2022-09-02T04:35:26.342Z,60.79
2022-09-02T04:38:32.851Z,60.63
2022-09-02T04:41:38.396Z,60.83
2022-09-02T04:44:38.170Z,60.63
2022-09-02T04:47:19.316Z,60.64
2022-09-02T04:49:55.697Z,60.62
2022-09-02T04:52:54.590Z,60.68
2022-09-02T04:55:58.050Z,60.92
2022-09-02T04:58:37.533Z,61.31
2022-09-02T05:01:38.581Z,61.54
2022-09-02T05:04:52.829Z,61.30
2022-09-02T05:07:33.953Z,61.04
2022-09-02T05:10:35.461Z,61.22
2022-09-02T05:13:29.520Z,61.39
2022-09-02T05:16:02.885Z,61.41
2022-09-02T05:19:01.284Z,61.45
2022-09-02T05:21:59.144Z,61.86
2022-09-02T05:25:22.866Z,61.86
2022-09-02T05:27:59.737Z,61.48
2022-09-02T05:30:33.345Z,61.27
2022-09-02T05:33:15.376Z,61.05
2022-09-02T05:35:56.038Z,60.87
2022-09-02T05:38:33.905Z,61.18
2022-09-02T05:41:23.619Z,60.74
2022-09-02T05:44:01.468Z,60.31
2022-09-02T05:46:51.885Z,60.07
2022-09-02T05:49:43.918Z,60.45
2022-09-02T05:52:26.736Z,60.71
2022-09-02T05:55:05.577Z,60.85
2022-09-02T05:57:40.957Z,60.90
2022-09-02T06:00:17.872Z,60.67
2022-09-02T06:02:52.636Z,60.84
2022-09-02T06:06:03.134Z,60.96
2022-09-02T06:08:46.372Z,61.02
2022-09-02T06:11:19.522Z,61.19
2022-09-02T06:13:55.742Z,61.10
2022-09-02T06:16:35.022Z,60.96
2022-09-02T06:19:16.439Z,60.86
2022-09-02T06:22:03.796Z,61.09
2022-09-02T06:24:38.912Z,61.09
2022-09-02T06:27:23.233Z,60.93
2022-09-02T06:30:02.110Z,61.06
2022-09-02T06:32:52.816Z,61.03
2022-09-02T06:35:28.046Z,60.41
2022-09-02T06:38:11.276Z,60.12
2022-09-02T06:41:03.479Z,60.18
2022-09-02T06:44:03.135Z,59.95
2022-09-02T06:46:55.464Z,58.77
2022-09-02T06:49:35.476Z,58.42
2022-09-02T06:52:17.033Z,59.41
2022-09-02T06:55:11.076Z,60.58
2022-09-02T06:57:59.194Z,62.46
2022-09-02T07:00:37.016Z,63.83
2022-09-02T07:03:36.739Z,63.55
2022-09-02T07:06:17.819Z,63.04
2022-09-02T07:09:08.302Z,62.58
2022-09-02T07:11:53.930Z,61.56
2022-09-02T07:14:39.341Z,60.58
2022-09-02T07:17:23.606Z,58.31
2022-09-02T07:20:18.095Z,57.54
2022-09-02T07:23:11.692Z,57.43
2022-09-02T07:25:59.178Z,58.66
2022-09-02T07:28:44.038Z,59.24
2022-09-02T07:31:22.251Z,59.85
2022-09-02T07:34:19.235Z,60.66
2022-09-02T07:37:03.270Z,60.15
2022-09-02T07:39:50.231Z,60.64
2022-09-02T07:42:43.781Z,61.11
2022-09-02T07:46:24.817Z,60.20
2022-09-02T07:49:09.936Z,60.73
2022-09-02T07:51:58.172Z,59.87
2022-09-02T07:54:54.759Z,59.73
2022-09-02T07:57:56.809Z,59.77
2022-09-02T08:01:14.242Z,59.05
2022-09-02T08:04:22.049Z,58.81
2022-09-02T08:07:14.247Z,58.45
2022-09-02T08:10:01.458Z,58.51
2022-09-02T08:12:36.603Z,58.03
2022-09-02T08:15:50.651Z,58.00
2022-09-02T08:18:42.777Z,57.73
2022-09-02T08:21:29.318Z,56.22
2022-09-02T08:24:10.630Z,56.42
2022-09-02T08:26:55.832Z,55.79
2022-09-02T08:30:22.192Z,55.79
2022-09-02T08:33:19.533Z,55.32
2022-09-02T08:36:15.455Z,55.30
2022-09-02T08:39:02.062Z,54.51
2022-09-02T08:42:05.013Z,53.72
2022-09-02T08:44:54.585Z,53.68
2022-09-02T08:47:32.222Z,52.54
2022-09-02T08:50:22.209Z,52.24
2022-09-02T08:53:40.343Z,51.78
2022-09-02T08:57:09.658Z,50.87
2022-09-02T08:59:53.172Z,50.79
2022-09-02T09:02:33.931Z,51.07
2022-09-02T09:05:13.096Z,51.18
2022-09-02T09:08:09.636Z,50.74
2022-09-02T09:11:02.613Z,50.82
2022-09-02T09:13:44.481Z,50.97
2022-09-02T09:16:46.345Z,51.43
2022-09-02T09:20:00.702Z,51.84
2022-09-02T09:22:42.467Z,52.20
2022-09-02T09:25:30.281Z,52.76
2022-09-02T09:28:19.566Z,53.10
2022-09-02T09:31:20.600Z,53.98
2022-09-02T09:35:00.429Z,54.45
2022-09-02T09:37:59.749Z,54.88
2022-09-02T09:41:15.734Z,54.83
2022-09-02T09:43:54.003Z,54.07
2022-09-02T09:47:31.840Z,53.90
2022-09-02T09:50:49.340Z,52.95
2022-09-02T09:54:16.302Z,52.36
2022-09-02T09:56:50.809Z,52.25
2022-09-02T10:00:05.478Z,51.15
2022-09-02T10:03:06.828Z,50.21
2022-09-02T10:05:44.323Z,49.57
2022-09-02T10:08:50.077Z,48.53
2022-09-02T10:12:07.162Z,48.08
2022-09-02T10:14:59.642Z,47.13
2022-09-02T10:18:21.211Z,46.84
2022-09-02T10:21:45.195Z,46.28
2022-09-02T10:25:10.434Z,47.79
2022-09-02T10:28:34.026Z,46.43
2022-09-02T10:31:51.099Z,45.76
2022-09-02T10:34:55.885Z,43.56
2022-09-02T10:38:10.548Z,44.67
2022-09-02T10:41:32.001Z,42.69
2022-09-02T10:44:38.493Z,42.63
2022-09-02T10:50:41.214Z,41.93
2022-09-02T10:53:32.795Z,42.55
2022-09-02T10:56:51.937Z,42.51
2022-09-02T10:59:37.962Z,42.36
2022-09-02T11:02:18.343Z,41.65
2022-09-02T11:05:12.713Z,41.60
2022-09-02T11:08:20.646Z,40.62
2022-09-02T11:11:22.104Z,39.21
2022-09-02T11:14:03.547Z,38.74
2022-09-02T11:16:46.163Z,38.06
2022-09-02T11:19:49.705Z,37.93
2022-09-02T11:22:55.626Z,36.98
2022-09-02T11:25:53.746Z,36.33
2022-09-02T11:28:43.594Z,34.88
2022-09-02T11:32:01.011Z,34.37
2022-09-02T11:35:06.980Z,33.53
2022-09-02T11:38:27.134Z,32.24
2022-09-02T11:41:36.635Z,32.14
2022-09-02T11:44:52.490Z,30.56
2022-09-02T11:48:17.271Z,30.22
2022-09-02T11:51:28.171Z,29.69
2022-09-02T11:54:20.791Z,30.33
2022-09-02T11:57:41.599Z,30.98
2022-09-02T12:00:55.879Z,29.86
2022-09-02T12:03:52.042Z,27.28
2022-09-02T12:06:28.373Z,28.36
2022-09-02T12:09:00.758Z,28.60
2022-09-02T12:11:41.922Z,29.46
2022-09-02T12:14:31.755Z,28.36
2022-09-02T12:17:40.824Z,28.27
2022-09-02T12:20:39.809Z,27.60
2022-09-02T12:23:10.678Z,26.68
2022-09-02T12:25:57.356Z,25.50
2022-09-02T12:28:31.389Z,25.17
2022-09-02T12:31:08.898Z,25.21
2022-09-02T12:33:40.213Z,24.91
2022-09-02T12:36:40.562Z,24.82
2022-09-02T12:39:25.808Z,25.53
2022-09-02T12:42:01.731Z,26.48
2022-09-02T12:44:42.459Z,27.62
2022-09-02T12:47:31.627Z,28.85
2022-09-02T12:50:11.962Z,29.87
2022-09-02T12:52:52.618Z,30.32
2022-09-02T12:55:27.330Z,30.33
2022-09-02T12:58:30.365Z,29.40
2022-09-02T13:01:54.387Z,28.58
2022-09-02T13:05:10.213Z,29.19
2022-09-02T13:08:12.285Z,29.88
2022-09-02T13:10:57.932Z,30.68
2022-09-02T13:13:55.742Z,31.69
2022-09-02T13:16:48.383Z,32.79
2022-09-02T13:19:39.718Z,33.91
2022-09-02T13:22:46.301Z,34.53
2022-09-02T13:25:48.661Z,34.59
2022-09-02T13:28:59.894Z,34.63
2022-09-02T13:31:31.744Z,34.82
2022-09-02T13:34:39.801Z,35.12
2022-09-02T13:38:03.447Z,35.70
2022-09-02T13:40:39.590Z,36.50
2022-09-02T13:43:28.305Z,36.89
2022-09-02T13:46:12.914Z,37.21
2022-09-02T13:48:50.647Z,37.73
2022-09-02T13:51:31.138Z,38.15
2022-09-02T13:54:42.905Z,38.77
2022-09-02T13:57:47.771Z,39.76
2022-09-02T14:00:33.502Z,40.41
2022-09-02T14:03:25.216Z,40.58
2022-09-02T14:06:23.565Z,40.82
2022-09-02T14:09:14.336Z,40.99
2022-09-02T14:12:12.102Z,40.96
2022-09-02T14:14:53.049Z,40.76
2022-09-02T14:17:45.524Z,40.45
2022-09-02T14:20:33.903Z,40.37
2022-09-02T14:23:16.773Z,40.26
2022-09-02T14:26:02.483Z,40.30
2022-09-02T14:28:52.485Z,40.44
2022-09-02T14:31:35.406Z,40.82
2022-09-02T14:34:36.806Z,41.44
2022-09-02T14:38:08.491Z,41.85
2022-09-02T14:41:12.095Z,42.80
2022-09-02T14:44:15.873Z,42.32
2022-09-02T14:47:01.383Z,41.41
2022-09-02T14:49:39.614Z,41.19
2022-09-02T14:52:41.704Z,41.23
2022-09-02T14:55:59.625Z,40.89
2022-09-02T14:58:52.127Z,40.67
2022-09-02T15:02:09.248Z,40.39
2022-09-02T15:05:14.904Z,41.00
2022-09-02T15:08:16.402Z,40.97
2022-09-02T15:11:04.106Z,41.23
2022-09-02T15:13:40.538Z,41.39
2022-09-02T15:16:32.023Z,41.42
2022-09-02T15:19:18.828Z,41.64
2022-09-02T15:22:22.787Z,41.49
2022-09-02T15:25:04.469Z,41.72
2022-09-02T15:27:39.317Z,42.09
2022-09-02T15:30:35.791Z,42.27
2022-09-02T15:33:18.992Z,41.92
2022-09-02T15:36:25.745Z,41.20
2022-09-02T15:39:40.556Z,41.04
2022-09-02T15:42:29.989Z,40.89
2022-09-02T15:45:10.760Z,40.75
2022-09-02T15:47:54.017Z,40.70
2022-09-02T15:50:46.612Z,40.94
2022-09-02T15:53:28.968Z,40.94
2022-09-02T15:56:00.560Z,41.38
2022-09-02T15:59:20.068Z,41.89
2022-09-02T16:02:27.020Z,41.88
2022-09-02T16:05:21.984Z,41.91
2022-09-02T16:08:20.878Z,42.08
2022-09-02T16:11:10.995Z,42.26
2022-09-02T16:14:06.765Z,42.53
2022-09-02T16:17:25.786Z,42.81
2022-09-02T16:20:24.135Z,43.18
2022-09-02T16:23:07.362Z,43.39
2022-09-02T16:26:09.305Z,43.66
2022-09-02T16:29:28.336Z,43.73
2022-09-02T16:32:55.342Z,43.69
2022-09-02T16:35:55.750Z,43.54
2022-09-02T16:38:56.967Z,43.27
2022-09-02T16:41:44.229Z,43.45
2022-09-02T16:44:34.539Z,43.43
2022-09-02T16:47:25.239Z,43.24
2022-09-02T16:50:28.283Z,43.64
2022-09-02T16:53:09.333Z,43.80
2022-09-02T16:56:27.896Z,43.76
2022-09-02T16:59:11.941Z,43.94
2022-09-02T17:02:24.081Z,44.13
2022-09-02T17:05:08.773Z,44.48
2022-09-02T17:08:02.866Z,44.67
2022-09-02T17:10:36.374Z,44.84
2022-09-02T17:13:31.406Z,45.28
2022-09-02T17:16:12.909Z,45.31
2022-09-02T17:18:59.794Z,45.26
2022-09-02T17:22:12.645Z,45.60
2022-09-02T17:24:54.091Z,46.12
2022-09-02T17:27:28.583Z,46.43
2022-09-02T17:30:25.498Z,46.74
2022-09-02T17:33:29.238Z,46.62
2022-09-02T17:36:29.566Z,46.83
2022-09-02T17:39:16.918Z,46.94
2022-09-02T17:42:16.940Z,47.30
2022-09-02T17:45:01.363Z,47.57
2022-09-02T17:47:59.272Z,48.26
2022-09-02T17:50:56.603Z,48.94
2022-09-02T17:53:36.235Z,49.90
2022-09-02T17:56:51.290Z,50.59
2022-09-02T18:00:13.944Z,50.84
2022-09-02T18:03:42.365Z,51.13
2022-09-02T18:07:08.907Z,51.39
2022-09-02T18:10:57.839Z,51.87
2022-09-02T18:14:14.464Z,52.28
2022-09-02T18:17:10.825Z,52.74
2022-09-02T18:20:55.091Z,53.20
2022-09-02T18:23:50.876Z,53.89
2022-09-02T18:27:35.545Z,54.23
2022-09-02T18:31:09.598Z,54.04
2022-09-02T18:34:37.773Z,54.23
2022-09-02T18:37:41.622Z,54.38
2022-09-02T18:41:24.291Z,54.36
2022-09-02T18:44:55.425Z,54.42
2022-09-02T18:48:54.291Z,54.86
2022-09-02T18:52:14.452Z,54.84
2022-09-02T18:55:19.785Z,55.39
2022-09-02T18:59:04.631Z,55.51
2022-09-02T19:02:02.298Z,55.61
2022-09-02T19:04:58.926Z,55.61
2022-09-02T19:07:59.908Z,56.54
2022-09-02T19:26:06.967Z,59.00
2022-09-02T19:28:52.138Z,59.43
2022-09-02T19:31:29.706Z,59.79
2022-09-02T19:34:14.448Z,60.01
2022-09-02T19:36:49.242Z,60.32
2022-09-02T19:40:03.693Z,60.49
2022-09-02T19:42:36.007Z,60.71
2022-09-02T19:45:21.890Z,61.14
2022-09-02T19:48:06.961Z,61.38
2022-09-02T19:51:09.081Z,61.54
2022-09-02T19:53:56.812Z,63.37
2022-09-02T19:56:45.676Z,64.34
2022-09-02T20:00:06.545Z,63.45
2022-09-02T20:02:44.687Z,62.35
2022-09-02T20:05:26.482Z,61.22
2022-09-02T20:08:01.618Z,59.63
2022-09-02T20:10:37.537Z,58.67
2022-09-02T20:13:25.306Z,59.08
2022-09-02T20:15:57.989Z,59.54
2022-09-02T20:18:30.243Z,60.25
2022-09-02T20:21:12.964Z,60.59
2022-09-02T20:23:47.713Z,61.08
2022-09-02T20:26:31.333Z,61.47
2022-09-02T20:29:40.574Z,63.12
2022-09-02T20:32:42.025Z,64.47
2022-09-02T20:36:06.723Z,63.94
2022-09-02T20:39:07.325Z,63.30
2022-09-02T20:42:30.957Z,62.52
2022-09-02T20:45:30.236Z,62.34
2022-09-02T20:48:52.371Z,60.13
2022-09-02T20:52:19.439Z,59.12
2022-09-02T20:56:01.366Z,59.87
2022-09-02T20:58:36.834Z,60.29
2022-09-02T21:01:37.297Z,60.35
2022-09-02T21:04:22.274Z,61.35
2022-09-02T21:07:17.921Z,63.45
2022-09-02T21:10:16.852Z,64.97
2022-09-02T21:13:16.701Z,64.59
2022-09-02T21:16:20.184Z,63.61
2022-09-02T21:19:30.976Z,62.72
2022-09-02T21:22:26.943Z,61.94
2022-09-02T21:25:38.410Z,61.24
2022-09-02T21:28:18.237Z,59.74
2022-09-02T21:31:21.189Z,59.13
2022-09-02T21:34:05.682Z,59.60
2022-09-02T21:36:42.019Z,60.53
2022-09-02T21:39:51.443Z,61.16
2022-09-02T21:43:11.632Z,63.17
2022-09-02T21:45:51.795Z,64.49
2022-09-02T21:49:05.054Z,63.02
2022-09-02T21:52:41.725Z,62.16
2022-09-02T21:55:35.640Z,61.42
2022-09-02T21:59:06.656Z,60.93
2022-09-02T22:02:19.688Z,59.28
2022-09-02T22:05:21.624Z,59.25
2022-09-02T22:08:41.291Z,60.03
2022-09-02T22:11:54.781Z,60.89
2022-09-02T22:15:31.226Z,63.56
2022-09-02T22:19:01.890Z,64.84
2022-09-02T22:21:53.961Z,64.06
2022-09-02T22:25:00.939Z,63.05
2022-09-02T22:28:15.383Z,62.58
2022-09-02T22:31:13.834Z,61.96
2022-09-02T22:34:00.130Z,61.38
2022-09-02T22:37:14.018Z,59.61
2022-09-02T22:39:54.092Z,58.69
2022-09-02T22:43:10.964Z,59.34
2022-09-02T22:46:15.135Z,60.05
2022-09-02T22:49:37.732Z,60.76
2022-09-02T22:52:57.208Z,63.55
2022-09-02T22:56:05.320Z,64.30
2022-09-02T22:59:29.814Z,62.87
2022-09-02T23:02:32.105Z,62.00
2022-09-02T23:06:01.801Z,59.59
2022-09-02T23:09:11.624Z,58.28
2022-09-02T23:11:53.351Z,58.88
2022-09-02T23:15:04.650Z,59.59
2022-09-02T23:18:08.768Z,59.94
2022-09-02T23:21:33.014Z,60.45
2022-09-02T23:24:04.177Z,60.80
2022-09-02T23:27:35.597Z,62.78
2022-09-02T23:30:33.387Z,64.40
2022-09-02T23:33:09.167Z,62.97
2022-09-02T23:36:47.572Z,61.82
2022-09-02T23:39:53.088Z,61.05
2022-09-02T23:42:29.797Z,58.90
2022-09-02T23:45:30.093Z,57.96
2022-09-02T23:48:51.954Z,58.24
2022-09-02T23:51:58.015Z,59.04
2022-09-02T23:54:38.698Z,59.73
2022-09-02T23:57:58.571Z,60.81
